createdAt,value
2023-05-13T00:02:20.356Z,102617.31
2023-05-13T00:04:47.394Z,102611.16
2023-05-13T00:07:14.304Z,102612.03
2023-05-13T00:09:41.197Z,102611.16
2023-05-13T00:12:08.385Z,102604.25
2023-05-13T00:14:35.359Z,102608.56
2023-05-13T00:17:05.117Z,102598.91
2023-05-13T00:19:32.306Z,102600.78
2023-05-13T00:21:59.378Z,102606.13
2023-05-13T00:24:26.395Z,102600.91
2023-05-13T00:26:53.422Z,102600.91
2023-05-13T00:29:20.434Z,102600.91
2023-05-13T00:31:47.622Z,102599.31
2023-05-13T00:34:14.650Z,102596.63
2023-05-13T00:36:41.618Z,102586.94
2023-05-13T00:39:08.565Z,102588.78
2023-05-13T00:41:35.535Z,102588.84
2023-05-13T00:44:02.554Z,102585.31
2023-05-13T00:46:33.652Z,102588.94
2023-05-13T00:49:01.522Z,102578.28
2023-05-13T00:51:28.572Z,102579.19
2023-05-13T00:53:57.898Z,102585.41
2023-05-13T00:56:26.627Z,102589.78
2023-05-13T00:58:53.707Z,102581.06
2023-05-13T01:01:44.647Z,102585.56
2023-05-13T01:04:48.363Z,102577.66
2023-05-13T01:07:21.060Z,102575.09
2023-05-13T01:10:09.427Z,102573.34
2023-05-13T01:12:39.080Z,102569.88
2023-05-13T01:15:17.124Z,102568.16
2023-05-13T01:17:57.798Z,102566.28
2023-05-13T01:20:27.481Z,102562.81
2023-05-13T01:22:54.956Z,102553.03
2023-05-13T01:25:21.939Z,102547.84
2023-05-13T01:27:49.029Z,102552.16
2023-05-13T01:30:16.691Z,102556.56
2023-05-13T01:32:44.901Z,102553.91
2023-05-13T01:35:12.791Z,102553.91
2023-05-13T01:37:40.914Z,102560.22
2023-05-13T01:40:20.520Z,102550.47
2023-05-13T01:42:55.860Z,102550.47
2023-05-13T01:45:22.788Z,102553.16
2023-05-13T01:47:49.844Z,102552.28
2023-05-13T01:50:16.865Z,102556.75
2023-05-13T01:52:43.780Z,102550.59
2023-05-13T01:55:10.783Z,102552.25
2023-05-13T01:57:37.883Z,102544.31
2023-05-13T02:00:05.945Z,102546.03
2023-05-13T02:02:32.930Z,102539.84
2023-05-13T02:04:59.913Z,102550.50
2023-05-13T02:07:26.942Z,102548.72
2023-05-13T02:10:00.006Z,102546.09
2023-05-13T02:12:27.647Z,102554.16
2023-05-13T02:14:55.472Z,102552.41
2023-05-13T02:17:22.944Z,102548.97
2023-05-13T02:19:50.273Z,102549.84
2023-05-13T02:22:17.280Z,102554.28
2023-05-13T02:24:44.252Z,102550.84
2023-05-13T02:27:13.400Z,102557.91
2023-05-13T02:29:40.334Z,102559.63
2023-05-13T02:32:08.071Z,102556.16
2023-05-13T02:34:35.220Z,102550.84
2023-05-13T02:37:03.876Z,102551.63
2023-05-13T02:39:31.012Z,102553.28
2023-05-13T02:41:58.269Z,102555.16
2023-05-13T02:44:25.235Z,102556.03
2023-05-13T02:46:52.187Z,102553.28
2023-05-13T02:49:19.145Z,102552.59
2023-05-13T02:51:46.549Z,102553.38
2023-05-13T02:54:13.806Z,102556.03
2023-05-13T02:56:40.854Z,102557.75
2023-05-13T02:59:07.826Z,102565.81
2023-05-13T03:01:35.151Z,102555.16
2023-05-13T03:04:02.790Z,102556.09
2023-05-13T03:06:29.694Z,102552.59
2023-05-13T03:08:56.653Z,102560.56
2023-05-13T03:11:23.593Z,102558.75
2023-05-13T03:13:50.502Z,102561.41
2023-05-13T03:16:17.579Z,102555.25
2023-05-13T03:18:44.567Z,102552.59
2023-05-13T03:21:11.589Z,102550.84
2023-05-13T03:23:38.565Z,102549.09
2023-05-13T03:26:05.701Z,102556.25
2023-05-13T03:28:32.811Z,102552.59
2023-05-13T03:30:59.870Z,102553.41
2023-05-13T03:33:26.831Z,102547.31
2023-05-13T03:35:53.930Z,102549.09
2023-05-13T03:38:20.928Z,102543.63
2023-05-13T03:40:47.883Z,102538.31
2023-05-13T03:43:14.908Z,102539.28
2023-05-13T03:45:42.096Z,102541.19
2023-05-13T03:48:09.108Z,102533.13
2023-05-13T03:50:36.133Z,102533.13
2023-05-13T03:53:03.137Z,102529.66
2023-05-13T03:55:30.154Z,102527.91
2023-05-13T03:57:57.052Z,102537.66
2023-05-13T04:00:24.237Z,102526.09
2023-05-13T04:02:51.554Z,102530.44
2023-05-13T04:05:18.945Z,102526.09
2023-05-13T04:07:46.764Z,102524.34
2023-05-13T04:10:15.654Z,102533.13
2023-05-13T04:12:42.869Z,102540.19
2023-05-13T04:15:10.326Z,102540.31
2023-05-13T04:17:37.337Z,102538.44
2023-05-13T04:20:04.696Z,102545.44
2023-05-13T04:22:31.691Z,102549.03
2023-05-13T04:24:58.680Z,102547.31
2023-05-13T04:27:25.704Z,102553.59
2023-05-13T04:29:52.753Z,102551.75
2023-05-13T04:32:22.204Z,102557.03
2023-05-13T04:34:50.124Z,102559.69
2023-05-13T04:37:17.461Z,102564.06
2023-05-13T04:39:46.912Z,102558.81
2023-05-13T04:42:15.188Z,102563.22
2023-05-13T04:44:42.314Z,102567.69
2023-05-13T04:47:09.672Z,102568.56
2023-05-13T04:49:36.782Z,102576.59
2023-05-13T04:52:05.486Z,102568.69
2023-05-13T04:54:32.499Z,102566.94
2023-05-13T04:56:59.426Z,102571.34
2023-05-13T04:59:26.349Z,102569.56
2023-05-13T05:01:53.395Z,102565.94
2023-05-13T05:04:20.365Z,102555.28
2023-05-13T05:06:47.404Z,102552.72
2023-05-13T05:09:14.641Z,102562.50
2023-05-13T05:11:41.551Z,102563.34
2023-05-13T05:14:08.521Z,102553.41
2023-05-13T05:16:35.542Z,102558.56
2023-05-13T05:19:02.542Z,102562.03
2023-05-13T05:21:29.538Z,102557.56
2023-05-13T05:23:57.324Z,102566.34
2023-05-13T05:26:24.346Z,102566.28
2023-05-13T05:28:51.497Z,102559.09
2023-05-13T05:31:18.723Z,102562.69
2023-05-13T05:33:45.786Z,102564.44
2023-05-13T05:36:12.781Z,102565.19
2023-05-13T05:38:39.696Z,102567.19
2023-05-13T05:41:07.132Z,102566.19
2023-05-13T05:43:34.143Z,102554.53
2023-05-13T05:46:01.061Z,102558.03
2023-05-13T05:48:28.039Z,102557.09
2023-05-13T05:50:56.703Z,102560.63
2023-05-13T05:53:23.727Z,102557.03
2023-05-13T05:55:52.380Z,102558.69
2023-05-13T05:58:20.087Z,102553.41
2023-05-13T06:00:47.426Z,102559.56
2023-05-13T06:03:14.606Z,102561.38
2023-05-13T06:05:41.765Z,102557.75
2023-05-13T06:08:08.698Z,102556.03
2023-05-13T06:10:35.833Z,102551.41
2023-05-13T06:13:02.925Z,102554.16
2023-05-13T06:15:29.869Z,102560.28
2023-05-13T06:17:57.330Z,102559.38
2023-05-13T06:20:24.554Z,102557.63
2023-05-13T06:22:51.502Z,102550.47
2023-05-13T06:25:18.723Z,102547.78
2023-05-13T06:27:45.917Z,102553.94
2023-05-13T06:30:13.292Z,102554.81
2023-05-13T06:32:47.251Z,102548.59
2023-05-13T06:35:21.338Z,102558.28
2023-05-13T06:37:48.266Z,102555.63
2023-05-13T06:40:15.275Z,102551.94
2023-05-13T06:42:42.250Z,102557.34
2023-05-13T06:45:09.878Z,102555.50
2023-05-13T06:47:36.965Z,102550.16
2023-05-13T06:50:04.833Z,102546.56
2023-05-13T06:52:32.099Z,102551.81
2023-05-13T06:55:00.274Z,102541.25
2023-05-13T06:57:41.225Z,102554.44
2023-05-13T07:00:09.037Z,102548.25
2023-05-13T07:02:36.059Z,102542.00
2023-05-13T07:05:03.505Z,102534.91
2023-05-13T07:07:30.600Z,102533.91
2023-05-13T07:09:57.805Z,102536.50
2023-05-13T07:12:24.968Z,102532.03
2023-05-13T07:14:52.185Z,102521.47
2023-05-13T07:17:19.278Z,102533.69
2023-05-13T07:19:46.478Z,102531.03
2023-05-13T07:22:13.689Z,102524.84
2023-05-13T07:24:42.296Z,102518.53
2023-05-13T07:27:09.678Z,102510.59
2023-05-13T07:29:36.862Z,102514.06
2023-05-13T07:32:06.143Z,102512.22
2023-05-13T07:34:33.741Z,102515.72
2023-05-13T07:37:00.998Z,102510.34
2023-05-13T07:39:28.703Z,102498.81
2023-05-13T07:41:56.060Z,102497.00
2023-05-13T07:44:23.438Z,102497.00
2023-05-13T07:46:53.753Z,102504.88
2023-05-13T07:49:21.738Z,102496.78
2023-05-13T07:51:48.797Z,102498.66
2023-05-13T07:54:15.937Z,102500.56
2023-05-13T07:56:44.597Z,102504.00
2023-05-13T07:59:11.633Z,102506.72
2023-05-13T08:01:38.717Z,102507.72
2023-05-13T08:04:06.019Z,102503.22
2023-05-13T08:06:33.307Z,102502.34
2023-05-13T08:09:01.815Z,102503.91
2023-05-13T08:11:29.570Z,102502.78
2023-05-13T08:13:56.702Z,102500.06
2023-05-13T08:16:24.172Z,102499.94
2023-05-13T08:18:51.343Z,102494.59
2023-05-13T08:21:18.722Z,102494.44
2023-05-13T08:23:49.065Z,102486.44
2023-05-13T08:26:16.093Z,102481.75
2023-05-13T08:28:43.281Z,102495.81
2023-05-13T08:31:14.006Z,102489.47
2023-05-13T08:33:43.031Z,102491.13
2023-05-13T08:36:10.499Z,102490.13
2023-05-13T08:38:37.746Z,102488.25
2023-05-13T08:41:06.747Z,102479.31
2023-05-13T08:43:34.616Z,102482.72
2023-05-13T08:46:04.772Z,102483.44
2023-05-13T08:48:33.082Z,102479.03
2023-05-13T08:51:02.631Z,102478.88
2023-05-13T08:53:30.160Z,102482.34
2023-05-13T08:55:58.098Z,102474.47
2023-05-13T08:58:26.082Z,102475.44
2023-05-13T09:00:56.426Z,102471.03
2023-05-13T09:03:23.794Z,102474.63
2023-05-13T09:05:51.641Z,102478.31
2023-05-13T09:08:20.447Z,102477.38
2023-05-13T09:10:48.471Z,102480.97
2023-05-13T09:13:19.213Z,102478.38
2023-05-13T09:15:46.937Z,102477.53
2023-05-13T09:18:18.531Z,102473.97
2023-05-13T09:20:46.659Z,102467.72
2023-05-13T09:23:14.739Z,102468.66
2023-05-13T09:25:42.248Z,102465.97
2023-05-13T09:28:09.528Z,102471.31
2023-05-13T09:30:46.698Z,102465.97
2023-05-13T09:33:17.833Z,102470.44
2023-05-13T09:35:50.026Z,102468.75
2023-05-13T09:38:18.931Z,102466.06
2023-05-13T09:40:56.790Z,102465.97
2023-05-13T09:43:31.740Z,102464.19
2023-05-13T09:46:05.327Z,102465.97
2023-05-13T09:48:34.036Z,102466.94
2023-05-13T09:51:01.720Z,102472.19
2023-05-13T09:53:29.598Z,102471.31
2023-05-13T09:55:58.279Z,102471.31
2023-05-13T09:58:31.412Z,102465.97
2023-05-13T10:00:59.187Z,102474.94
2023-05-13T10:03:29.093Z,102468.75
2023-05-13T10:06:00.534Z,102466.06
2023-05-13T10:08:30.880Z,102465.13
2023-05-13T10:10:59.464Z,102465.97
2023-05-13T10:13:26.968Z,102471.41
2023-05-13T10:15:56.320Z,102465.19
2023-05-13T10:18:24.655Z,102471.44
2023-05-13T10:20:55.461Z,102463.53
2023-05-13T10:23:24.845Z,102463.47
2023-05-13T10:25:54.608Z,102458.22
2023-05-13T10:28:22.337Z,102449.44
2023-05-13T10:30:52.605Z,102454.75
2023-05-13T10:33:21.010Z,102450.41
2023-05-13T10:36:16.913Z,102455.53
2023-05-13T10:38:59.130Z,102446.75
2023-05-13T10:41:45.160Z,102443.78
2023-05-13T10:44:12.766Z,102443.38
2023-05-13T10:46:40.648Z,102444.50
2023-05-13T10:49:17.623Z,102438.63
2023-05-13T10:51:50.853Z,102433.00
2023-05-13T10:54:25.380Z,102439.78
2023-05-13T10:56:59.920Z,102434.22
2023-05-13T10:59:30.835Z,102428.66
2023-05-13T11:01:57.989Z,102423.19
2023-05-13T11:04:25.107Z,102419.66
2023-05-13T11:06:53.717Z,102419.78
2023-05-13T11:09:23.785Z,102422.53
2023-05-13T11:11:56.266Z,102418.00
2023-05-13T11:14:25.328Z,102419.59
2023-05-13T11:16:55.203Z,102409.38
2023-05-13T11:19:26.617Z,102408.50
2023-05-13T11:21:57.352Z,102407.63
2023-05-13T11:24:26.462Z,102407.56
2023-05-13T11:26:59.691Z,102418.28
2023-05-13T11:29:33.943Z,102410.31
2023-05-13T11:32:03.175Z,102412.28
2023-05-13T11:34:32.045Z,102404.41
2023-05-13T11:37:10.360Z,102401.38
2023-05-13T11:39:41.231Z,102397.06
2023-05-13T11:42:11.234Z,102395.00
2023-05-13T11:44:47.453Z,102385.25
2023-05-13T11:47:15.289Z,102376.13
2023-05-13T11:49:47.203Z,102379.16
2023-05-13T11:52:19.712Z,102375.53
2023-05-13T11:54:57.959Z,102369.19
2023-05-13T11:57:27.794Z,102365.38
2023-05-13T12:00:03.567Z,102362.28
2023-05-13T12:02:40.939Z,102357.69
2023-05-13T12:05:10.103Z,102357.69
2023-05-13T12:07:38.513Z,102361.81
2023-05-13T12:10:07.475Z,102355.06
2023-05-13T12:12:38.334Z,102351.00
2023-05-13T12:15:13.054Z,102348.78
2023-05-13T12:17:40.825Z,102345.41
2023-05-13T12:20:08.229Z,102334.97
2023-05-13T12:22:36.276Z,102333.00
2023-05-13T12:25:39.198Z,102326.75
2023-05-13T12:28:10.737Z,102329.41
2023-05-13T12:30:40.273Z,102322.91
2023-05-13T12:33:17.667Z,102322.03
2023-05-13T12:35:48.901Z,102314.03
2023-05-13T12:38:20.582Z,102321.03
2023-05-13T12:40:49.068Z,102312.81
2023-05-13T12:43:20.867Z,102311.59
2023-05-13T12:45:54.339Z,102307.91
2023-05-13T12:48:25.661Z,102298.88
2023-05-13T12:50:53.236Z,102297.16
2023-05-13T12:53:20.379Z,102296.06
2023-05-13T12:55:48.256Z,102295.75
2023-05-13T12:58:15.687Z,102294.66
2023-05-13T13:00:42.945Z,102290.97
2023-05-13T13:03:10.299Z,102279.13
2023-05-13T13:05:38.019Z,102278.81
2023-05-13T13:08:08.533Z,102278.56
2023-05-13T13:10:35.892Z,102274.53
2023-05-13T13:13:04.018Z,102273.69
2023-05-13T13:15:31.893Z,102270.59
2023-05-13T13:17:59.679Z,102272.19
2023-05-13T13:20:27.221Z,102268.69
2023-05-13T13:22:55.253Z,102265.19
2023-05-13T13:25:22.858Z,102260.63
2023-05-13T13:27:53.753Z,102260.63
2023-05-13T13:30:21.016Z,102258.84
2023-05-13T13:32:48.302Z,102253.50
2023-05-13T13:35:15.847Z,102249.09
2023-05-13T13:37:43.904Z,102249.09
2023-05-13T13:40:12.605Z,102243.75
2023-05-13T13:42:44.746Z,102246.53
2023-05-13T13:45:14.652Z,102246.75
2023-05-13T13:47:43.125Z,102238.72
2023-05-13T13:50:12.567Z,102237.03
2023-05-13T13:52:39.830Z,102237.81
2023-05-13T13:55:07.981Z,102231.69
2023-05-13T13:57:35.552Z,102223.59
2023-05-13T14:00:02.646Z,102230.72
2023-05-13T14:02:29.766Z,102226.34
2023-05-13T14:04:56.843Z,102231.69
2023-05-13T14:07:23.891Z,102222.72
2023-05-13T14:09:50.874Z,102222.72
2023-05-13T14:12:18.217Z,102220.22
2023-05-13T14:14:45.239Z,102212.22
2023-05-13T14:17:13.162Z,102205.19
2023-05-13T14:19:41.337Z,102196.41
2023-05-13T14:22:08.545Z,102196.22
2023-05-13T14:24:35.728Z,102185.72
2023-05-13T14:27:02.771Z,102191.91
2023-05-13T14:29:29.815Z,102184.50
2023-05-13T14:31:57.063Z,102190.88
2023-05-13T14:34:24.635Z,102182.88
2023-05-13T14:36:52.009Z,102189.06
2023-05-13T14:39:19.229Z,102184.50
2023-05-13T14:41:49.433Z,102180.38
2023-05-13T14:44:16.509Z,102178.75
2023-05-13T14:46:44.488Z,102181.47
2023-05-13T14:49:12.009Z,102166.59
2023-05-13T14:51:39.174Z,102167.53
2023-05-13T14:54:06.948Z,102162.97
2023-05-13T14:56:35.032Z,102160.16
2023-05-13T14:59:03.063Z,102159.13
2023-05-13T15:01:30.618Z,102151.97
2023-05-13T15:04:00.049Z,102143.03
2023-05-13T15:06:27.465Z,102138.47
2023-05-13T15:08:56.908Z,102139.34
2023-05-13T15:11:27.849Z,102140.28
2023-05-13T15:13:55.555Z,102141.81
2023-05-13T15:16:23.425Z,102131.13
2023-05-13T15:18:51.523Z,102129.34
2023-05-13T15:21:28.375Z,102135.81
2023-05-13T15:23:55.771Z,102131.34
2023-05-13T15:26:23.088Z,102127.88
2023-05-13T15:28:51.086Z,102127.03
2023-05-13T15:31:18.644Z,102118.06
2023-05-13T15:33:45.796Z,102123.06
2023-05-13T15:36:23.008Z,102122.13
2023-05-13T15:38:51.752Z,102111.25
2023-05-13T15:41:22.377Z,102109.56
2023-05-13T15:43:50.386Z,102106.72
2023-05-13T15:46:18.480Z,102105.09
2023-05-13T15:48:45.896Z,102118.50
2023-05-13T15:51:13.906Z,102108.56
2023-05-13T15:53:41.199Z,102103.56
2023-05-13T15:56:09.208Z,102099.09
2023-05-13T15:58:36.384Z,102102.38
2023-05-13T16:01:04.032Z,102097.75
2023-05-13T16:03:31.336Z,102100.41
2023-05-13T16:05:59.934Z,102095.84
2023-05-13T16:08:27.131Z,102094.91
2023-05-13T16:10:54.368Z,102094.13
2023-05-13T16:13:22.026Z,102090.50
2023-05-13T16:15:49.429Z,102093.28
2023-05-13T16:18:16.748Z,102093.28
2023-05-13T16:20:43.876Z,102086.19
2023-05-13T16:23:11.787Z,102085.34
2023-05-13T16:25:40.096Z,102081.91
2023-05-13T16:28:07.149Z,102072.19
2023-05-13T16:30:34.438Z,102069.59
2023-05-13T16:33:01.538Z,102054.19
2023-05-13T16:35:29.107Z,102055.06
2023-05-13T16:37:56.248Z,102052.56
2023-05-13T16:40:23.470Z,102048.78
2023-05-13T16:42:51.250Z,102041.63
2023-05-13T16:45:18.355Z,102038.13
2023-05-13T16:47:45.463Z,102031.22
2023-05-13T16:50:12.664Z,102022.03
2023-05-13T16:52:39.987Z,102021.16
2023-05-13T16:55:07.477Z,102025.63
2023-05-13T16:57:34.713Z,102018.66
2023-05-13T17:00:01.710Z,102020.72
2023-05-13T17:02:28.922Z,102015.50
2023-05-13T17:04:56.076Z,102011.84
2023-05-13T17:07:23.064Z,102016.91
2023-05-13T17:09:50.255Z,102010.09
2023-05-13T17:12:17.454Z,101999.00
2023-05-13T17:14:44.725Z,102008.16
2023-05-13T17:17:11.974Z,102008.25
2023-05-13T17:19:39.235Z,102005.16
2023-05-13T17:22:06.282Z,102004.88
2023-05-13T17:24:33.405Z,102005.28
2023-05-13T17:27:00.514Z,102003.59
2023-05-13T17:29:27.621Z,101992.91
2023-05-13T17:31:54.732Z,101989.28
2023-05-13T17:34:22.079Z,101999.72
2023-05-13T17:36:50.233Z,102005.97
2023-05-13T17:39:17.989Z,101993.69
2023-05-13T17:41:44.984Z,101999.66
2023-05-13T17:44:12.090Z,102005.59
2023-05-13T17:46:39.408Z,101996.41
2023-05-13T17:49:06.969Z,101999.75
2023-05-13T17:51:34.114Z,101996.28
2023-05-13T17:54:01.301Z,101993.63
2023-05-13T17:56:28.481Z,101992.78
2023-05-13T17:58:55.865Z,101990.72
2023-05-13T18:01:23.015Z,101991.06
2023-05-13T18:03:51.191Z,101978.00
2023-05-13T18:06:18.409Z,101981.28
2023-05-13T18:08:45.638Z,101984.72
2023-05-13T18:11:12.680Z,101983.88
2023-05-13T18:13:39.875Z,101980.03
2023-05-13T18:16:09.760Z,101982.78
2023-05-13T18:18:37.437Z,101988.25
2023-05-13T18:21:04.772Z,101989.22
2023-05-13T18:23:33.112Z,101983.03
2023-05-13T18:26:00.294Z,101984.72
2023-05-13T18:28:27.871Z,101984.81
2023-05-13T18:30:55.445Z,101986.56
2023-05-13T18:33:22.653Z,101987.38
2023-05-13T18:35:50.182Z,101987.31
2023-05-13T18:38:17.420Z,101985.53
2023-05-13T18:40:44.664Z,101983.66
2023-05-13T18:43:11.821Z,101989.75
2023-05-13T18:45:39.241Z,101980.25
2023-05-13T18:48:06.977Z,101983.09
2023-05-13T18:50:34.324Z,101983.31
2023-05-13T18:53:01.549Z,101985.28
2023-05-13T18:55:29.344Z,101989.53
2023-05-13T18:57:56.804Z,101984.78
2023-05-13T19:00:24.238Z,101978.31
2023-05-13T19:02:51.634Z,101983.66
2023-05-13T19:05:20.542Z,101981.69
2023-05-13T19:07:48.040Z,101983.47
2023-05-13T19:10:16.297Z,101983.81
2023-05-13T19:12:44.895Z,101987.78
2023-05-13T19:15:14.994Z,101979.84
2023-05-13T19:17:42.878Z,101981.84
2023-05-13T19:20:12.486Z,101980.13
2023-05-13T19:22:40.660Z,101978.22
2023-05-13T19:25:10.403Z,101976.25
2023-05-13T19:27:41.977Z,101986.84
2023-05-13T19:30:11.298Z,101978.91
2023-05-13T19:32:39.249Z,101987.63
2023-05-13T19:35:07.349Z,101983.38
2023-05-13T19:37:34.835Z,101982.78
2023-05-13T19:40:02.812Z,101983.94
2023-05-13T19:42:32.647Z,101980.88
2023-05-13T19:45:00.246Z,101983.50
2023-05-13T19:47:28.101Z,101979.97
2023-05-13T19:49:55.596Z,101977.38
2023-05-13T19:52:23.589Z,101987.09
2023-05-13T19:54:51.955Z,101986.22
2023-05-13T19:57:19.515Z,101975.56
2023-05-13T19:59:47.795Z,101976.44
2023-05-13T20:02:15.916Z,101985.38
2023-05-13T20:04:43.520Z,101977.28
2023-05-13T20:07:13.701Z,101976.34
2023-05-13T20:09:41.798Z,101978.84
2023-05-13T20:12:09.962Z,101981.69
2023-05-13T20:14:48.628Z,101974.72
2023-05-13T20:17:29.231Z,101974.72
2023-05-13T20:19:57.789Z,101971.09
2023-05-13T20:22:25.966Z,101978.44
2023-05-13T20:24:55.075Z,101974.03
2023-05-13T20:27:32.898Z,101967.94
2023-05-13T20:30:02.896Z,101963.47
2023-05-13T20:32:30.291Z,101965.25
2023-05-13T20:34:57.422Z,101966.19
2023-05-13T20:37:24.816Z,101965.31
2023-05-13T20:39:56.046Z,101970.75
2023-05-13T20:42:23.290Z,101959.13
2023-05-13T20:44:52.528Z,101961.78
2023-05-13T20:47:21.139Z,101963.53
2023-05-13T20:49:48.424Z,101959.94
2023-05-13T20:52:16.849Z,101955.25
2023-05-13T20:54:44.158Z,101952.44
2023-05-13T20:57:11.684Z,101961.84
2023-05-13T20:59:39.200Z,101953.50
2023-05-13T21:02:06.489Z,101949.84
2023-05-13T21:04:33.668Z,101959.47
2023-05-13T21:07:02.144Z,101948.00
2023-05-13T21:09:29.740Z,101950.44
2023-05-13T21:11:57.729Z,101942.44
2023-05-13T21:14:26.152Z,101946.91
2023-05-13T21:16:53.553Z,101935.38
2023-05-13T21:19:22.601Z,101931.78
2023-05-13T21:21:50.335Z,101940.59
2023-05-13T21:24:19.681Z,101931.34
2023-05-13T21:26:47.467Z,101927.88
2023-05-13T21:29:15.474Z,101928.41
2023-05-13T21:31:43.546Z,101925.47
2023-05-13T21:34:11.196Z,101921.88
2023-05-13T21:36:39.885Z,101920.84
2023-05-13T21:39:08.250Z,101919.03
2023-05-13T21:41:40.111Z,101909.31
2023-05-13T21:44:09.605Z,101913.59
2023-05-13T21:46:37.109Z,101907.41
2023-05-13T21:49:05.805Z,101906.66
2023-05-13T21:51:34.516Z,101906.59
2023-05-13T21:54:01.829Z,101910.19
2023-05-13T21:56:29.079Z,101911.91
2023-05-13T21:58:56.538Z,101915.50
2023-05-13T22:01:23.814Z,101900.56
2023-05-13T22:03:52.690Z,101909.31
2023-05-13T22:06:20.030Z,101906.66
2023-05-13T22:08:47.531Z,101905.78
2023-05-13T22:11:14.680Z,101907.50
2023-05-13T22:13:41.886Z,101898.66
2023-05-13T22:16:09.311Z,101887.91
2023-05-13T22:18:36.909Z,101884.38
2023-05-13T22:21:06.530Z,101881.91
2023-05-13T22:23:34.155Z,101879.41
2023-05-13T22:26:01.244Z,101880.78
2023-05-13T22:28:28.314Z,101879.47
2023-05-13T22:30:57.328Z,101883.53
2023-05-13T22:33:24.494Z,101874.84
2023-05-13T22:35:51.858Z,101878.63
2023-05-13T22:38:18.884Z,101874.41
2023-05-13T22:40:45.937Z,101868.38
2023-05-13T22:43:12.988Z,101863.25
2023-05-13T22:45:40.056Z,101858.09
2023-05-13T22:48:07.267Z,101857.22
2023-05-13T22:50:34.541Z,101851.13
2023-05-13T22:53:01.760Z,101847.66
2023-05-13T22:55:29.168Z,101838.91
2023-05-13T22:57:56.243Z,101838.13
2023-05-13T23:00:23.527Z,101829.38
2023-05-13T23:02:50.782Z,101825.91
2023-05-13T23:05:18.233Z,101824.97
2023-05-13T23:07:45.227Z,101820.69
2023-05-13T23:10:12.373Z,101816.28
2023-05-13T23:12:39.435Z,101808.41
2023-05-13T23:15:07.506Z,101802.31
2023-05-13T23:17:34.812Z,101802.31
2023-05-13T23:20:02.185Z,101795.25
2023-05-13T23:22:29.362Z,101786.50
2023-05-13T23:24:56.386Z,101791.06
2023-05-13T23:27:23.429Z,101786.75
2023-05-13T23:29:50.416Z,101786.75
2023-05-13T23:32:17.440Z,101779.72
2023-05-13T23:34:44.530Z,101770.00
2023-05-13T23:37:11.979Z,101774.56
2023-05-13T23:39:38.896Z,101772.81
2023-05-13T23:42:06.304Z,101781.78
2023-05-13T23:44:33.249Z,101776.56
2023-05-13T23:47:00.399Z,101778.47
2023-05-13T23:49:27.423Z,101794.50
2023-05-13T23:51:54.832Z,101787.56
2023-05-13T23:54:22.041Z,101794.66
2023-05-13T23:56:49.149Z,101766.41
2023-05-13T23:59:16.294Z,101770.03
